sensor_id;sensor_type;location;lat;lon;timestamp;P1;durP1;ratioP1;P2;durP2;ratioP2
34481;SDS011;20720;48.886;9.388;2023-07-20T00:02:04;1.98;;;1.17;;
34481;SDS011;20720;48.886;9.388;2023-07-20T00:04:30;3.95;;;1.73;;
34481;SDS011;20720;48.886;9.388;2023-07-20T00:06:56;3.03;;;1.42;;
34481;SDS011;20720;48.886;9.388;2023-07-20T00:09:21;4.45;;;1.50;;
34481;SDS011;20720;48.886;9.388;2023-07-20T00:11:49;2.45;;;1.33;;
34481;SDS011;20720;48.886;9.388;2023-07-20T00:14:16;4.35;;;1.35;;
34481;SDS011;20720;48.886;9.388;2023-07-20T00:16:41;5.05;;;1.70;;
34481;SDS011;20720;48.886;9.388;2023-07-20T00:19:07;2.22;;;1.40;;
34481;SDS011;20720;48.886;9.388;2023-07-20T00:21:33;6.10;;;2.20;;
34481;SDS011;20720;48.886;9.388;2023-07-20T00:23:58;5.35;;;1.60;;
34481;SDS011;20720;48.886;9.388;2023-07-20T00:26:23;3.40;;;1.70;;
34481;SDS011;20720;48.886;9.388;2023-07-20T00:28:49;4.60;;;1.80;;
34481;SDS011;20720;48.886;9.388;2023-07-20T00:31:15;3.53;;;1.40;;
34481;SDS011;20720;48.886;9.388;2023-07-20T00:33:40;3.33;;;1.50;;
34481;SDS011;20720;48.886;9.388;2023-07-20T00:36:06;3.33;;;1.60;;
34481;SDS011;20720;48.886;9.388;2023-07-20T00:38:31;5.05;;;1.98;;
34481;SDS011;20720;48.886;9.388;2023-07-20T00:40:56;3.95;;;1.48;;
34481;SDS011;20720;48.886;9.388;2023-07-20T00:43:22;4.03;;;1.58;;
34481;SDS011;20720;48.886;9.388;2023-07-20T00:45:47;3.83;;;1.38;;
34481;SDS011;20720;48.886;9.388;2023-07-20T00:48:12;3.20;;;1.50;;
34481;SDS011;20720;48.886;9.388;2023-07-20T00:50:39;5.28;;;1.70;;
34481;SDS011;20720;48.886;9.388;2023-07-20T00:53:05;1.85;;;1.10;;
34481;SDS011;20720;48.886;9.388;2023-07-20T00:55:31;3.42;;;1.63;;
34481;SDS011;20720;48.886;9.388;2023-07-20T00:57:56;2.78;;;1.40;;
34481;SDS011;20720;48.886;9.388;2023-07-20T01:00:22;2.20;;;1.20;;
34481;SDS011;20720;48.886;9.388;2023-07-20T01:02:48;4.57;;;1.67;;
34481;SDS011;20720;48.886;9.388;2023-07-20T01:05:13;3.13;;;1.27;;
34481;SDS011;20720;48.886;9.388;2023-07-20T01:12:52;2.03;;;1.13;;
34481;SDS011;20720;48.886;9.388;2023-07-20T01:15:20;4.22;;;1.52;;
34481;SDS011;20720;48.886;9.388;2023-07-20T01:17:45;3.03;;;1.40;;
34481;SDS011;20720;48.886;9.388;2023-07-20T01:20:12;4.07;;;1.70;;
34481;SDS011;20720;48.886;9.388;2023-07-20T01:33:13;3.75;;;1.40;;
34481;SDS011;20720;48.886;9.388;2023-07-20T01:35:41;3.05;;;1.75;;
34481;SDS011;20720;48.886;9.388;2023-07-20T01:38:08;2.58;;;1.30;;
34481;SDS011;20720;48.886;9.388;2023-07-20T01:40:34;5.53;;;1.90;;
34481;SDS011;20720;48.886;9.388;2023-07-20T01:43:00;4.03;;;1.65;;
34481;SDS011;20720;48.886;9.388;2023-07-20T01:45:27;2.95;;;1.42;;
34481;SDS011;20720;48.886;9.388;2023-07-20T01:47:52;2.80;;;1.40;;
34481;SDS011;20720;48.886;9.388;2023-07-20T01:50:17;2.83;;;1.35;;
34481;SDS011;20720;48.886;9.388;2023-07-20T01:52:43;3.40;;;1.63;;
34481;SDS011;20720;48.886;9.388;2023-07-20T01:55:08;4.22;;;1.55;;
34481;SDS011;20720;48.886;9.388;2023-07-20T01:57:33;5.78;;;2.05;;
34481;SDS011;20720;48.886;9.388;2023-07-20T01:59:59;2.67;;;1.42;;
34481;SDS011;20720;48.886;9.388;2023-07-20T02:02:26;3.13;;;1.38;;
34481;SDS011;20720;48.886;9.388;2023-07-20T02:04:55;2.08;;;1.30;;
34481;SDS011;20720;48.886;9.388;2023-07-20T02:07:20;3.60;;;1.50;;
34481;SDS011;20720;48.886;9.388;2023-07-20T02:09:45;3.78;;;1.60;;
34481;SDS011;20720;48.886;9.388;2023-07-20T02:12:11;3.20;;;1.45;;
34481;SDS011;20720;48.886;9.388;2023-07-20T02:14:36;3.03;;;1.23;;
34481;SDS011;20720;48.886;9.388;2023-07-20T02:17:01;2.80;;;1.58;;
34481;SDS011;20720;48.886;9.388;2023-07-20T02:19:26;5.03;;;1.42;;
34481;SDS011;20720;48.886;9.388;2023-07-20T02:21:52;3.45;;;1.30;;
34481;SDS011;20720;48.886;9.388;2023-07-20T02:24:17;4.75;;;1.70;;
34481;SDS011;20720;48.886;9.388;2023-07-20T02:26:43;4.25;;;1.42;;
34481;SDS011;20720;48.886;9.388;2023-07-20T02:29:08;4.90;;;1.42;;
34481;SDS011;20720;48.886;9.388;2023-07-20T02:31:36;6.80;;;1.40;;
34481;SDS011;20720;48.886;9.388;2023-07-20T02:34:02;2.60;;;1.20;;
34481;SDS011;20720;48.886;9.388;2023-07-20T02:36:27;2.95;;;1.50;;
34481;SDS011;20720;48.886;9.388;2023-07-20T02:38:53;2.97;;;1.73;;
34481;SDS011;20720;48.886;9.388;2023-07-20T02:41:18;3.08;;;1.50;;
34481;SDS011;20720;48.886;9.388;2023-07-20T02:43:44;6.05;;;1.73;;
34481;SDS011;20720;48.886;9.388;2023-07-20T02:46:09;3.63;;;1.80;;
34481;SDS011;20720;48.886;9.388;2023-07-20T02:48:34;2.60;;;1.38;;
34481;SDS011;20720;48.886;9.388;2023-07-20T02:51:00;4.25;;;1.80;;
34481;SDS011;20720;48.886;9.388;2023-07-20T02:53:25;3.50;;;1.50;;
34481;SDS011;20720;48.886;9.388;2023-07-20T02:55:50;3.78;;;1.60;;
34481;SDS011;20720;48.886;9.388;2023-07-20T02:58:15;4.43;;;1.52;;
34481;SDS011;20720;48.886;9.388;2023-07-20T03:00:42;3.10;;;1.55;;
34481;SDS011;20720;48.886;9.388;2023-07-20T03:03:08;3.25;;;1.35;;
34481;SDS011;20720;48.886;9.388;2023-07-20T03:05:34;3.55;;;1.58;;
34481;SDS011;20720;48.886;9.388;2023-07-20T03:08:00;4.20;;;1.70;;
34481;SDS011;20720;48.886;9.388;2023-07-20T03:10:27;3.58;;;1.58;;
34481;SDS011;20720;48.886;9.388;2023-07-20T03:12:53;2.95;;;1.30;;
34481;SDS011;20720;48.886;9.388;2023-07-20T03:15:18;2.83;;;1.50;;
34481;SDS011;20720;48.886;9.388;2023-07-20T03:17:43;5.32;;;1.80;;
34481;SDS011;20720;48.886;9.388;2023-07-20T03:20:09;4.72;;;1.70;;
34481;SDS011;20720;48.886;9.388;2023-07-20T03:22:35;5.28;;;2.10;;
34481;SDS011;20720;48.886;9.388;2023-07-20T03:25:00;3.47;;;1.45;;
34481;SDS011;20720;48.886;9.388;2023-07-20T03:27:25;3.35;;;1.40;;
34481;SDS011;20720;48.886;9.388;2023-07-20T03:29:51;5.85;;;1.80;;
34481;SDS011;20720;48.886;9.388;2023-07-20T03:32:16;5.88;;;1.65;;
34481;SDS011;20720;48.886;9.388;2023-07-20T03:34:41;3.10;;;1.50;;
34481;SDS011;20720;48.886;9.388;2023-07-20T03:37:06;4.45;;;1.95;;
34481;SDS011;20720;48.886;9.388;2023-07-20T03:39:32;4.03;;;1.58;;
34481;SDS011;20720;48.886;9.388;2023-07-20T03:41:57;4.00;;;1.98;;
34481;SDS011;20720;48.886;9.388;2023-07-20T03:44:24;3.88;;;1.83;;
34481;SDS011;20720;48.886;9.388;2023-07-20T03:46:49;4.07;;;1.70;;
34481;SDS011;20720;48.886;9.388;2023-07-20T03:49:14;2.85;;;1.80;;
34481;SDS011;20720;48.886;9.388;2023-07-20T03:51:40;5.15;;;1.77;;
34481;SDS011;20720;48.886;9.388;2023-07-20T03:54:05;2.65;;;1.40;;
34481;SDS011;20720;48.886;9.388;2023-07-20T03:56:30;4.18;;;1.50;;
34481;SDS011;20720;48.886;9.388;2023-07-20T03:58:59;5.93;;;2.05;;
34481;SDS011;20720;48.886;9.388;2023-07-20T04:01:24;4.35;;;1.67;;
34481;SDS011;20720;48.886;9.388;2023-07-20T04:03:49;4.03;;;1.70;;
34481;SDS011;20720;48.886;9.388;2023-07-20T04:06:15;2.95;;;1.35;;
34481;SDS011;20720;48.886;9.388;2023-07-20T04:08:41;3.72;;;1.50;;
34481;SDS011;20720;48.886;9.388;2023-07-20T04:11:07;4.10;;;1.52;;
34481;SDS011;20720;48.886;9.388;2023-07-20T04:13:32;3.90;;;1.95;;
34481;SDS011;20720;48.886;9.388;2023-07-20T04:15:59;3.95;;;1.60;;
34481;SDS011;20720;48.886;9.388;2023-07-20T04:18:24;3.97;;;1.90;;
34481;SDS011;20720;48.886;9.388;2023-07-20T04:20:50;3.22;;;1.95;;
34481;SDS011;20720;48.886;9.388;2023-07-20T04:23:15;5.25;;;2.08;;
34481;SDS011;20720;48.886;9.388;2023-07-20T04:25:41;2.65;;;1.55;;
34481;SDS011;20720;48.886;9.388;2023-07-20T04:28:07;4.32;;;1.92;;
34481;SDS011;20720;48.886;9.388;2023-07-20T04:30:34;3.92;;;1.85;;
34481;SDS011;20720;48.886;9.388;2023-07-20T04:33:00;5.45;;;2.05;;
34481;SDS011;20720;48.886;9.388;2023-07-20T04:35:45;3.58;;;1.60;;
34481;SDS011;20720;48.886;9.388;2023-07-20T04:38:12;3.45;;;1.77;;
34481;SDS011;20720;48.886;9.388;2023-07-20T04:40:38;3.28;;;1.67;;
34481;SDS011;20720;48.886;9.388;2023-07-20T04:43:03;3.53;;;1.90;;
34481;SDS011;20720;48.886;9.388;2023-07-20T04:45:28;4.28;;;1.95;;
34481;SDS011;20720;48.886;9.388;2023-07-20T04:47:54;3.58;;;1.67;;
34481;SDS011;20720;48.886;9.388;2023-07-20T04:50:20;4.88;;;2.17;;
34481;SDS011;20720;48.886;9.388;2023-07-20T04:52:45;3.75;;;2.05;;
34481;SDS011;20720;48.886;9.388;2023-07-20T04:55:11;4.50;;;2.17;;
34481;SDS011;20720;48.886;9.388;2023-07-20T04:57:36;4.63;;;1.90;;
34481;SDS011;20720;48.886;9.388;2023-07-20T05:00:01;5.00;;;2.17;;
34481;SDS011;20720;48.886;9.388;2023-07-20T05:02:28;4.70;;;1.83;;
34481;SDS011;20720;48.886;9.388;2023-07-20T05:04:54;4.78;;;2.03;;
34481;SDS011;20720;48.886;9.388;2023-07-20T05:07:19;5.10;;;1.55;;
34481;SDS011;20720;48.886;9.388;2023-07-20T05:09:44;4.28;;;1.60;;
34481;SDS011;20720;48.886;9.388;2023-07-20T05:12:10;7.15;;;2.63;;
34481;SDS011;20720;48.886;9.388;2023-07-20T05:14:36;3.90;;;1.85;;
34481;SDS011;20720;48.886;9.388;2023-07-20T05:17:02;4.32;;;1.95;;
34481;SDS011;20720;48.886;9.388;2023-07-20T05:19:27;3.88;;;2.05;;
34481;SDS011;20720;48.886;9.388;2023-07-20T05:21:53;4.15;;;1.92;;
34481;SDS011;20720;48.886;9.388;2023-07-20T05:24:18;5.30;;;2.05;;
34481;SDS011;20720;48.886;9.388;2023-07-20T05:26:43;3.78;;;1.83;;
34481;SDS011;20720;48.886;9.388;2023-07-20T05:29:09;4.97;;;2.00;;
34481;SDS011;20720;48.886;9.388;2023-07-20T05:31:34;3.05;;;1.55;;
34481;SDS011;20720;48.886;9.388;2023-07-20T05:34:00;2.97;;;1.70;;
34481;SDS011;20720;48.886;9.388;2023-07-20T05:36:25;4.15;;;1.98;;
34481;SDS011;20720;48.886;9.388;2023-07-20T05:38:51;4.93;;;1.90;;
34481;SDS011;20720;48.886;9.388;2023-07-20T05:41:17;3.63;;;1.50;;
34481;SDS011;20720;48.886;9.388;2023-07-20T05:43:42;5.60;;;1.58;;
34481;SDS011;20720;48.886;9.388;2023-07-20T05:46:07;5.65;;;1.80;;
34481;SDS011;20720;48.886;9.388;2023-07-20T05:48:32;2.75;;;1.52;;
34481;SDS011;20720;48.886;9.388;2023-07-20T05:50:58;4.07;;;1.70;;
34481;SDS011;20720;48.886;9.388;2023-07-20T05:53:23;3.35;;;1.45;;
34481;SDS011;20720;48.886;9.388;2023-07-20T05:55:52;5.55;;;1.48;;
34481;SDS011;20720;48.886;9.388;2023-07-20T05:58:18;2.83;;;1.52;;
34481;SDS011;20720;48.886;9.388;2023-07-20T06:00:44;4.05;;;1.23;;
34481;SDS011;20720;48.886;9.388;2023-07-20T06:03:09;3.47;;;1.70;;
34481;SDS011;20720;48.886;9.388;2023-07-20T06:05:35;3.83;;;1.42;;
34481;SDS011;20720;48.886;9.388;2023-07-20T06:08:00;3.50;;;1.50;;
34481;SDS011;20720;48.886;9.388;2023-07-20T06:10:26;4.65;;;1.63;;
34481;SDS011;20720;48.886;9.388;2023-07-20T06:12:52;3.92;;;1.60;;
34481;SDS011;20720;48.886;9.388;2023-07-20T06:15:27;4.88;;;1.83;;
34481;SDS011;20720;48.886;9.388;2023-07-20T06:18:01;2.97;;;1.67;;
34481;SDS011;20720;48.886;9.388;2023-07-20T06:20:28;2.55;;;1.23;;
34481;SDS011;20720;48.886;9.388;2023-07-20T06:22:54;4.60;;;1.52;;
34481;SDS011;20720;48.886;9.388;2023-07-20T06:25:19;3.50;;;1.42;;
34481;SDS011;20720;48.886;9.388;2023-07-20T06:27:46;5.40;;;1.55;;
34481;SDS011;20720;48.886;9.388;2023-07-20T06:30:11;4.63;;;1.48;;
34481;SDS011;20720;48.886;9.388;2023-07-20T06:32:37;3.83;;;1.38;;
34481;SDS011;20720;48.886;9.388;2023-07-20T06:35:02;2.63;;;1.30;;
34481;SDS011;20720;48.886;9.388;2023-07-20T06:37:28;6.07;;;1.77;;
34481;SDS011;20720;48.886;9.388;2023-07-20T06:39:53;2.97;;;1.40;;
34481;SDS011;20720;48.886;9.388;2023-07-20T06:42:19;4.28;;;1.80;;
34481;SDS011;20720;48.886;9.388;2023-07-20T06:44:44;3.65;;;1.23;;
34481;SDS011;20720;48.886;9.388;2023-07-20T06:47:10;3.20;;;1.55;;
34481;SDS011;20720;48.886;9.388;2023-07-20T06:49:35;4.68;;;1.60;;
34481;SDS011;20720;48.886;9.388;2023-07-20T06:52:01;4.40;;;1.63;;
34481;SDS011;20720;48.886;9.388;2023-07-20T06:54:26;5.15;;;1.50;;
34481;SDS011;20720;48.886;9.388;2023-07-20T06:56:51;2.78;;;1.48;;
34481;SDS011;20720;48.886;9.388;2023-07-20T06:59:16;3.60;;;1.60;;
34481;SDS011;20720;48.886;9.388;2023-07-20T07:01:42;4.03;;;1.48;;
34481;SDS011;20720;48.886;9.388;2023-07-20T07:04:07;4.60;;;1.63;;
34481;SDS011;20720;48.886;9.388;2023-07-20T07:06:33;2.95;;;1.58;;
34481;SDS011;20720;48.886;9.388;2023-07-20T07:08:58;3.03;;;1.40;;
34481;SDS011;20720;48.886;9.388;2023-07-20T07:11:23;4.35;;;1.60;;
34481;SDS011;20720;48.886;9.388;2023-07-20T07:13:48;5.13;;;1.73;;
34481;SDS011;20720;48.886;9.388;2023-07-20T07:16:16;3.85;;;1.50;;
34481;SDS011;20720;48.886;9.388;2023-07-20T07:18:44;6.25;;;1.80;;
34481;SDS011;20720;48.886;9.388;2023-07-20T07:21:10;3.83;;;1.50;;
34481;SDS011;20720;48.886;9.388;2023-07-20T07:23:35;3.33;;;1.30;;
34481;SDS011;20720;48.886;9.388;2023-07-20T07:26:00;4.83;;;1.30;;
34481;SDS011;20720;48.886;9.388;2023-07-20T07:28:25;2.92;;;1.23;;
34481;SDS011;20720;48.886;9.388;2023-07-20T07:30:51;2.83;;;1.10;;
34481;SDS011;20720;48.886;9.388;2023-07-20T07:33:16;2.97;;;1.17;;
34481;SDS011;20720;48.886;9.388;2023-07-20T07:35:41;2.70;;;1.42;;
34481;SDS011;20720;48.886;9.388;2023-07-20T07:38:06;4.57;;;1.50;;
34481;SDS011;20720;48.886;9.388;2023-07-20T07:40:32;3.83;;;1.53;;
34481;SDS011;20720;48.886;9.388;2023-07-20T07:42:59;6.90;;;1.30;;
34481;SDS011;20720;48.886;9.388;2023-07-20T07:45:24;3.53;;;1.33;;
34481;SDS011;20720;48.886;9.388;2023-07-20T07:47:49;2.85;;;1.30;;
34481;SDS011;20720;48.886;9.388;2023-07-20T07:50:14;3.63;;;1.40;;
34481;SDS011;20720;48.886;9.388;2023-07-20T07:52:40;2.78;;;1.40;;
34481;SDS011;20720;48.886;9.388;2023-07-20T07:55:05;4.03;;;0.90;;
34481;SDS011;20720;48.886;9.388;2023-07-20T07:57:31;3.88;;;1.35;;
34481;SDS011;20720;48.886;9.388;2023-07-20T07:59:56;3.03;;;1.30;;
34481;SDS011;20720;48.886;9.388;2023-07-20T08:02:21;3.03;;;1.20;;
34481;SDS011;20720;48.886;9.388;2023-07-20T08:04:47;3.28;;;1.52;;
34481;SDS011;20720;48.886;9.388;2023-07-20T08:07:12;3.40;;;1.42;;
34481;SDS011;20720;48.886;9.388;2023-07-20T08:09:37;6.05;;;1.20;;
34481;SDS011;20720;48.886;9.388;2023-07-20T08:12:03;2.47;;;1.25;;
34481;SDS011;20720;48.886;9.388;2023-07-20T08:14:28;3.50;;;1.13;;
34481;SDS011;20720;48.886;9.388;2023-07-20T08:16:54;3.92;;;1.20;;
34481;SDS011;20720;48.886;9.388;2023-07-20T08:19:19;6.65;;;1.20;;
34481;SDS011;20720;48.886;9.388;2023-07-20T08:21:45;2.85;;;1.17;;
34481;SDS011;20720;48.886;9.388;2023-07-20T08:24:10;2.63;;;1.13;;
34481;SDS011;20720;48.886;9.388;2023-07-20T08:26:35;2.53;;;1.15;;
34481;SDS011;20720;48.886;9.388;2023-07-20T08:29:00;2.23;;;0.90;;
34481;SDS011;20720;48.886;9.388;2023-07-20T08:31:26;4.38;;;1.10;;
34481;SDS011;20720;48.886;9.388;2023-07-20T08:33:53;4.60;;;1.00;;
34481;SDS011;20720;48.886;9.388;2023-07-20T08:36:18;3.25;;;1.52;;
34481;SDS011;20720;48.886;9.388;2023-07-20T08:38:43;4.53;;;1.35;;
34481;SDS011;20720;48.886;9.388;2023-07-20T08:41:08;2.80;;;0.95;;
34481;SDS011;20720;48.886;9.388;2023-07-20T08:43:34;3.55;;;1.30;;
34481;SDS011;20720;48.886;9.388;2023-07-20T08:46:04;2.88;;;1.17;;
34481;SDS011;20720;48.886;9.388;2023-07-20T08:48:30;5.10;;;1.33;;
34481;SDS011;20720;48.886;9.388;2023-07-20T08:50:56;2.97;;;1.10;;
34481;SDS011;20720;48.886;9.388;2023-07-20T08:53:23;5.13;;;1.27;;
34481;SDS011;20720;48.886;9.388;2023-07-20T08:55:50;2.58;;;1.02;;
34481;SDS011;20720;48.886;9.388;2023-07-20T08:58:16;2.55;;;1.00;;
34481;SDS011;20720;48.886;9.388;2023-07-20T09:00:43;2.60;;;1.27;;
34481;SDS011;20720;48.886;9.388;2023-07-20T09:03:09;3.40;;;1.10;;
34481;SDS011;20720;48.886;9.388;2023-07-20T09:05:35;3.40;;;0.98;;
34481;SDS011;20720;48.886;9.388;2023-07-20T09:08:01;2.38;;;1.30;;
34481;SDS011;20720;48.886;9.388;2023-07-20T09:10:28;2.42;;;1.00;;
34481;SDS011;20720;48.886;9.388;2023-07-20T09:12:54;5.13;;;1.23;;
34481;SDS011;20720;48.886;9.388;2023-07-20T09:15:20;2.13;;;1.20;;
34481;SDS011;20720;48.886;9.388;2023-07-20T09:17:47;4.25;;;1.20;;
34481;SDS011;20720;48.886;9.388;2023-07-20T09:20:14;6.05;;;1.10;;
34481;SDS011;20720;48.886;9.388;2023-07-20T09:22:40;2.38;;;0.93;;
34481;SDS011;20720;48.886;9.388;2023-07-20T09:25:07;2.13;;;0.90;;
34481;SDS011;20720;48.886;9.388;2023-07-20T09:27:36;2.33;;;1.08;;
34481;SDS011;20720;48.886;9.388;2023-07-20T09:30:03;3.22;;;1.23;;
34481;SDS011;20720;48.886;9.388;2023-07-20T09:32:30;1.95;;;1.00;;
34481;SDS011;20720;48.886;9.388;2023-07-20T09:34:55;4.03;;;1.00;;
34481;SDS011;20720;48.886;9.388;2023-07-20T09:37:21;1.95;;;0.82;;
34481;SDS011;20720;48.886;9.388;2023-07-20T09:39:47;6.93;;;1.30;;
34481;SDS011;20720;48.886;9.388;2023-07-20T09:42:14;2.00;;;1.02;;
34481;SDS011;20720;48.886;9.388;2023-07-20T09:44:39;2.30;;;0.90;;
34481;SDS011;20720;48.886;9.388;2023-07-20T09:47:08;6.20;;;1.52;;
34481;SDS011;20720;48.886;9.388;2023-07-20T09:49:37;5.50;;;1.17;;
34481;SDS011;20720;48.886;9.388;2023-07-20T09:52:04;3.20;;;1.10;;
34481;SDS011;20720;48.886;9.388;2023-07-20T09:54:30;2.15;;;1.00;;
34481;SDS011;20720;48.886;9.388;2023-07-20T09:56:56;2.75;;;0.93;;
34481;SDS011;20720;48.886;9.388;2023-07-20T09:59:22;3.33;;;1.30;;
34481;SDS011;20720;48.886;9.388;2023-07-20T10:01:47;3.33;;;1.23;;
34481;SDS011;20720;48.886;9.388;2023-07-20T10:04:14;1.83;;;0.80;;
34481;SDS011;20720;48.886;9.388;2023-07-20T10:06:43;2.17;;;1.00;;
34481;SDS011;20720;48.886;9.388;2023-07-20T10:09:12;5.63;;;1.40;;
34481;SDS011;20720;48.886;9.388;2023-07-20T10:11:40;2.35;;;0.90;;
34481;SDS011;20720;48.886;9.388;2023-07-20T10:14:09;2.00;;;0.90;;
34481;SDS011;20720;48.886;9.388;2023-07-20T10:16:43;2.47;;;0.93;;
34481;SDS011;20720;48.886;9.388;2023-07-20T10:19:22;1.73;;;0.75;;
34481;SDS011;20720;48.886;9.388;2023-07-20T10:21:51;3.33;;;0.70;;
34481;SDS011;20720;48.886;9.388;2023-07-20T10:24:24;3.17;;;0.90;;
34481;SDS011;20720;48.886;9.388;2023-07-20T10:26:50;1.92;;;0.75;;
34481;SDS011;20720;48.886;9.388;2023-07-20T10:29:16;1.90;;;0.80;;
34481;SDS011;20720;48.886;9.388;2023-07-20T10:31:42;1.25;;;0.60;;
34481;SDS011;20720;48.886;9.388;2023-07-20T10:34:08;2.10;;;0.80;;
34481;SDS011;20720;48.886;9.388;2023-07-20T10:36:34;4.07;;;1.00;;
34481;SDS011;20720;48.886;9.388;2023-07-20T10:39:22;1.88;;;0.75;;
34481;SDS011;20720;48.886;9.388;2023-07-20T10:41:49;1.85;;;0.90;;
34481;SDS011;20720;48.886;9.388;2023-07-20T10:44:14;1.88;;;0.80;;
34481;SDS011;20720;48.886;9.388;2023-07-20T10:46:45;1.52;;;0.73;;
34481;SDS011;20720;48.886;9.388;2023-07-20T10:49:11;2.03;;;0.80;;
34481;SDS011;20720;48.886;9.388;2023-07-20T10:51:41;2.40;;;0.77;;
34481;SDS011;20720;48.886;9.388;2023-07-20T10:56:48;2.17;;;0.75;;
34481;SDS011;20720;48.886;9.388;2023-07-20T11:01:48;1.50;;;0.82;;
34481;SDS011;20720;48.886;9.388;2023-07-20T11:04:14;1.15;;;0.68;;
34481;SDS011;20720;48.886;9.388;2023-07-20T11:06:43;2.10;;;0.73;;
34481;SDS011;20720;48.886;9.388;2023-07-20T11:11:44;1.33;;;0.77;;
34481;SDS011;20720;48.886;9.388;2023-07-20T11:14:22;2.83;;;0.70;;
34481;SDS011;20720;48.886;9.388;2023-07-20T11:16:49;2.35;;;1.00;;
34481;SDS011;20720;48.886;9.388;2023-07-20T11:19:19;1.58;;;0.70;;
34481;SDS011;20720;48.886;9.388;2023-07-20T11:21:50;1.77;;;0.90;;
34481;SDS011;20720;48.886;9.388;2023-07-20T11:24:17;1.77;;;0.52;;
34481;SDS011;20720;48.886;9.388;2023-07-20T11:26:46;1.77;;;0.70;;
34481;SDS011;20720;48.886;9.388;2023-07-20T11:29:13;1.45;;;0.70;;
34481;SDS011;20720;48.886;9.388;2023-07-20T11:31:40;1.30;;;0.60;;
34481;SDS011;20720;48.886;9.388;2023-07-20T11:34:09;1.25;;;0.50;;
34481;SDS011;20720;48.886;9.388;2023-07-20T11:36:37;1.30;;;0.70;;
34481;SDS011;20720;48.886;9.388;2023-07-20T11:39:03;1.60;;;0.60;;
34481;SDS011;20720;48.886;9.388;2023-07-20T11:41:30;3.63;;;0.82;;
34481;SDS011;20720;48.886;9.388;2023-07-20T11:43:55;1.88;;;0.55;;
34481;SDS011;20720;48.886;9.388;2023-07-20T11:46:22;1.13;;;0.60;;
34481;SDS011;20720;48.886;9.388;2023-07-20T11:48:47;2.42;;;0.75;;
34481;SDS011;20720;48.886;9.388;2023-07-20T11:51:16;2.65;;;0.80;;
34481;SDS011;20720;48.886;9.388;2023-07-20T11:53:43;1.52;;;0.82;;
34481;SDS011;20720;48.886;9.388;2023-07-20T11:56:10;1.58;;;0.77;;
34481;SDS011;20720;48.886;9.388;2023-07-20T11:58:35;2.97;;;1.08;;
34481;SDS011;20720;48.886;9.388;2023-07-20T12:01:01;1.45;;;0.70;;
34481;SDS011;20720;48.886;9.388;2023-07-20T12:03:27;1.48;;;0.70;;
34481;SDS011;20720;48.886;9.388;2023-07-20T12:05:52;1.25;;;0.55;;
34481;SDS011;20720;48.886;9.388;2023-07-20T12:08:17;1.67;;;0.70;;
34481;SDS011;20720;48.886;9.388;2023-07-20T12:10:43;2.70;;;0.90;;
34481;SDS011;20720;48.886;9.388;2023-07-20T12:13:09;1.85;;;0.70;;
34481;SDS011;20720;48.886;9.388;2023-07-20T12:15:36;3.83;;;0.70;;
34481;SDS011;20720;48.886;9.388;2023-07-20T12:18:02;3.13;;;0.88;;
34481;SDS011;20720;48.886;9.388;2023-07-20T12:20:35;1.63;;;0.70;;
34481;SDS011;20720;48.886;9.388;2023-07-20T12:23:03;1.77;;;0.65;;
34481;SDS011;20720;48.886;9.388;2023-07-20T12:25:37;3.88;;;0.93;;
34481;SDS011;20720;48.886;9.388;2023-07-20T12:28:07;2.25;;;0.77;;
34481;SDS011;20720;48.886;9.388;2023-07-20T12:30:33;2.25;;;0.80;;
34481;SDS011;20720;48.886;9.388;2023-07-20T12:32:59;2.15;;;0.90;;
34481;SDS011;20720;48.886;9.388;2023-07-20T12:35:24;1.75;;;0.80;;
34481;SDS011;20720;48.886;9.388;2023-07-20T12:37:49;2.13;;;0.90;;
34481;SDS011;20720;48.886;9.388;2023-07-20T12:40:16;1.63;;;0.63;;
34481;SDS011;20720;48.886;9.388;2023-07-20T12:42:42;4.40;;;0.93;;
34481;SDS011;20720;48.886;9.388;2023-07-20T12:45:07;1.50;;;0.80;;
34481;SDS011;20720;48.886;9.388;2023-07-20T12:47:33;1.92;;;0.77;;
34481;SDS011;20720;48.886;9.388;2023-07-20T12:49:59;1.10;;;0.57;;
34481;SDS011;20720;48.886;9.388;2023-07-20T12:52:24;1.42;;;0.65;;
34481;SDS011;20720;48.886;9.388;2023-07-20T12:54:50;2.27;;;0.77;;
34481;SDS011;20720;48.886;9.388;2023-07-20T12:57:15;1.67;;;0.82;;
34481;SDS011;20720;48.886;9.388;2023-07-20T12:59:40;2.65;;;0.80;;
34481;SDS011;20720;48.886;9.388;2023-07-20T13:02:06;1.53;;;0.70;;
34481;SDS011;20720;48.886;9.388;2023-07-20T13:04:31;1.63;;;0.70;;
34481;SDS011;20720;48.886;9.388;2023-07-20T13:06:56;1.00;;;0.57;;
34481;SDS011;20720;48.886;9.388;2023-07-20T13:09:23;2.08;;;1.00;;
34481;SDS011;20720;48.886;9.388;2023-07-20T13:11:49;1.90;;;0.80;;
34481;SDS011;20720;48.886;9.388;2023-07-20T13:14:14;2.10;;;0.73;;
34481;SDS011;20720;48.886;9.388;2023-07-20T13:16:39;1.50;;;0.90;;
34481;SDS011;20720;48.886;9.388;2023-07-20T13:19:05;1.90;;;0.90;;
34481;SDS011;20720;48.886;9.388;2023-07-20T13:21:30;2.13;;;0.80;;
34481;SDS011;20720;48.886;9.388;2023-07-20T13:23:55;1.65;;;0.70;;
34481;SDS011;20720;48.886;9.388;2023-07-20T13:26:20;1.77;;;0.73;;
34481;SDS011;20720;48.886;9.388;2023-07-20T13:28:46;1.52;;;0.70;;
34481;SDS011;20720;48.886;9.388;2023-07-20T13:31:11;2.08;;;0.85;;
34481;SDS011;20720;48.886;9.388;2023-07-20T13:33:37;4.05;;;0.98;;
34481;SDS011;20720;48.886;9.388;2023-07-20T13:36:03;2.15;;;0.70;;
34481;SDS011;20720;48.886;9.388;2023-07-20T13:38:30;2.30;;;0.63;;
34481;SDS011;20720;48.886;9.388;2023-07-20T13:40:55;2.67;;;0.90;;
34481;SDS011;20720;48.886;9.388;2023-07-20T13:43:21;1.20;;;0.60;;
34481;SDS011;20720;48.886;9.388;2023-07-20T13:45:46;2.33;;;0.60;;
34481;SDS011;20720;48.886;9.388;2023-07-20T13:48:11;1.60;;;0.67;;
34481;SDS011;20720;48.886;9.388;2023-07-20T13:50:37;1.67;;;0.63;;
34481;SDS011;20720;48.886;9.388;2023-07-20T13:53:02;1.30;;;0.60;;
34481;SDS011;20720;48.886;9.388;2023-07-20T13:55:27;1.77;;;0.80;;
34481;SDS011;20720;48.886;9.388;2023-07-20T13:57:53;1.30;;;0.60;;
34481;SDS011;20720;48.886;9.388;2023-07-20T14:00:18;1.45;;;0.60;;
34481;SDS011;20720;48.886;9.388;2023-07-20T14:02:44;2.85;;;0.60;;
34481;SDS011;20720;48.886;9.388;2023-07-20T14:05:09;2.13;;;0.70;;
34481;SDS011;20720;48.886;9.388;2023-07-20T14:07:35;1.70;;;0.82;;
34481;SDS011;20720;48.886;9.388;2023-07-20T14:10:01;3.80;;;0.80;;
34481;SDS011;20720;48.886;9.388;2023-07-20T14:12:26;1.40;;;0.70;;
34481;SDS011;20720;48.886;9.388;2023-07-20T14:14:51;1.02;;;0.60;;
34481;SDS011;20720;48.886;9.388;2023-07-20T14:17:18;1.05;;;0.70;;
34481;SDS011;20720;48.886;9.388;2023-07-20T14:19:43;1.47;;;0.63;;
34481;SDS011;20720;48.886;9.388;2023-07-20T14:22:08;1.85;;;0.80;;
34481;SDS011;20720;48.886;9.388;2023-07-20T14:24:34;1.55;;;0.65;;
34481;SDS011;20720;48.886;9.388;2023-07-20T14:26:59;2.03;;;0.90;;
34481;SDS011;20720;48.886;9.388;2023-07-20T14:29:25;2.90;;;0.90;;
34481;SDS011;20720;48.886;9.388;2023-07-20T14:31:51;1.40;;;0.60;;
34481;SDS011;20720;48.886;9.388;2023-07-20T14:34:17;2.67;;;0.75;;
34481;SDS011;20720;48.886;9.388;2023-07-20T14:36:44;5.55;;;0.70;;
34481;SDS011;20720;48.886;9.388;2023-07-20T14:39:09;1.20;;;0.68;;
34481;SDS011;20720;48.886;9.388;2023-07-20T14:41:34;3.25;;;1.15;;
34481;SDS011;20720;48.886;9.388;2023-07-20T14:44:00;1.17;;;0.70;;
34481;SDS011;20720;48.886;9.388;2023-07-20T14:46:25;1.33;;;0.63;;
34481;SDS011;20720;48.886;9.388;2023-07-20T14:48:50;3.30;;;0.80;;
34481;SDS011;20720;48.886;9.388;2023-07-20T14:51:16;1.83;;;0.80;;
34481;SDS011;20720;48.886;9.388;2023-07-20T14:53:42;1.40;;;0.77;;
34481;SDS011;20720;48.886;9.388;2023-07-20T14:56:07;1.77;;;0.60;;
34481;SDS011;20720;48.886;9.388;2023-07-20T14:58:33;1.00;;;0.70;;
34481;SDS011;20720;48.886;9.388;2023-07-20T15:00:58;1.38;;;0.70;;
34481;SDS011;20720;48.886;9.388;2023-07-20T15:03:23;2.00;;;0.80;;
34481;SDS011;20720;48.886;9.388;2023-07-20T15:05:49;2.07;;;0.70;;